Time;durP1;ratioP1;P1;durP2;ratioP2;P2;SDS_P1;SDS_P2;PMS_P1;PMS_P2;Temp;Humidity;BMP_temperature;BMP_pressure;BME280_temperature;BME280_humidity;BME280_pressure;Samples;Min_cycle;Max_cycle;Signal;HPM_P1;HPM_P2
2022/08/06 06:01:46;;;;;;;;;1.00;1.00;;;;;17.44;41.93;102375.66;5325159;23;45835;-48
2022/08/06 06:04:12;;;;;;;;;1.00;1.00;;;;;17.48;42.35;102367.34;4995969;28;45523;-49
2022/08/06 06:06:37;;;;;;;;;0.00;0.00;;;;;17.41;42.57;102363.22;4998045;28;46223;-49
2022/08/06 06:09:02;;;;;;;;;0.67;0.67;;;;;17.39;41.81;102373.22;4998739;28;67710;-49
2022/08/06 06:11:28;;;;;;;;;0.00;0.00;;;;;17.48;42.43;102361.06;4997503;28;63346;-54
2022/08/06 06:13:54;;;;;;;;;3.00;1.00;;;;;17.58;42.75;102362.31;4998567;28;45651;-51
2022/08/06 06:16:28;;;;;;;;;1.00;1.00;;;;;17.66;41.95;102369.97;4998234;28;68028;-50
2022/08/06 06:19:07;;;;;;;;;1.00;1.00;;;;;17.78;42.16;102365.72;4991437;28;45585;-48
2022/08/06 06:21:56;;;;;;;;;1.00;1.00;;;;;17.73;41.70;102367.78;4996457;28;45467;-48
2022/08/06 06:24:30;;;;;;;;;1.00;1.00;;;;;17.71;41.86;102370.56;4982521;28;45378;-48
2022/08/06 06:27:07;;;;;;;;;1.00;1.00;;;;;17.68;41.78;102368.91;5008058;28;46252;-49
2022/08/06 06:29:44;;;;;;;;;1.00;1.00;;;;;17.64;42.06;102363.81;4999519;28;45398;-51
2022/08/06 06:32:15;;;;;;;;;1.00;1.00;;;;;17.75;41.52;102363.22;5000312;28;45289;-49
2022/08/06 06:35:05;;;;;;;;;1.00;1.00;;;;;17.82;42.07;102362.78;4995164;28;45760;-50
2022/08/06 06:38:11;;;;;;;;;0.00;0.00;;;;;17.77;41.62;102363.97;4998664;28;46257;-53
2022/08/06 06:40:46;;;;;;;;;2.00;2.00;;;;;17.79;41.80;102359.38;4992943;28;45331;-49
2022/08/06 06:43:16;;;;;;;;;3.33;0.33;;;;;17.92;41.75;102357.72;4999315;28;45501;-51
2022/08/06 06:45:51;;;;;;;;;0.33;0.33;;;;;18.11;41.45;102372.91;4999728;28;45468;-50
2022/08/06 06:48:21;;;;;;;;;0.00;0.00;;;;;18.32;40.77;102371.63;5008866;28;46389;-50
2022/08/06 06:50:51;;;;;;;;;0.33;0.33;;;;;18.47;40.06;102364.50;5000050;28;45341;-53
2022/08/06 06:53:17;;;;;;;;;3.67;0.67;;;;;18.63;39.91;102361.75;5009439;28;45352;-51
2022/08/06 06:55:48;;;;;;;;;0.00;0.00;;;;;18.81;39.89;102357.09;5011385;28;45458;-51
2022/08/06 06:58:36;;;;;;;;;0.00;0.00;;;;;18.98;38.48;102363.28;4998934;28;46860;-52
2022/08/06 07:01:05;;;;;;;;;1.00;1.00;;;;;19.07;38.63;102361.88;4997607;28;45635;-50
2022/08/06 07:03:33;;;;;;;;;0.00;0.00;;;;;19.18;38.44;102359.38;4998175;28;45328;-50
2022/08/06 07:05:59;;;;;;;;;2.00;0.33;;;;;19.26;38.11;102364.31;4998412;28;45550;-50
2022/08/06 07:08:26;;;;;;;;;0.00;0.00;;;;;19.28;37.13;102371.34;4996151;28;70052;-50
2022/08/06 07:10:52;;;;;;;;;0.33;0.33;;;;;19.37;37.94;102371.72;4996948;28;45328;-51
2022/08/06 07:13:19;;;;;;;;;0.00;0.00;;;;;19.50;37.72;102378.06;4998030;28;45634;-52
2022/08/06 07:15:45;;;;;;;;;1.00;0.00;;;;;19.59;37.07;102376.63;4997891;28;50594;-52
2022/08/06 07:18:11;;;;;;;;;0.00;0.00;;;;;19.71;37.34;102381.25;4996888;28;73994;-48
2022/08/06 07:20:37;;;;;;;;;0.00;0.00;;;;;19.85;36.17;102395.72;4996539;28;70184;-48
2022/08/06 07:23:07;;;;;;;;;0.67;0.00;;;;;20.03;36.26;102396.38;4997825;28;45321;-50
2022/08/06 07:25:40;;;;;;;;;0.00;0.00;;;;;20.18;35.78;102387.28;4995083;28;45357;-49
2022/08/06 07:28:07;;;;;;;;;0.00;0.00;;;;;20.29;35.93;102391.94;4997583;28;45430;-50
2022/08/06 07:30:33;;;;;;;;;0.00;0.00;;;;;20.36;35.23;102390.56;4996950;28;45345;-50
2022/08/06 07:33:00;;;;;;;;;0.67;0.67;;;;;20.47;36.43;102388.00;4996546;28;45489;-48
2022/08/06 07:35:25;;;;;;;;;3.00;0.00;;;;;20.64;33.45;102388.72;4996786;28;45597;-53
2022/08/06 07:37:56;;;;;;;;;2.67;0.00;;;;;20.80;34.52;102394.81;4996211;28;64464;-49
2022/08/06 07:40:25;;;;;;;;;0.00;0.00;;;;;20.90;34.01;102394.19;4996277;28;47254;-50
2022/08/06 07:42:54;;;;;;;;;0.00;0.00;;;;;21.05;32.82;102393.13;4997379;28;45622;-51
2022/08/06 07:45:22;;;;;;;;;1.00;0.67;;;;;21.23;32.38;102393.69;4996995;28;45496;-50
2022/08/06 07:47:48;;;;;;;;;0.00;0.00;;;;;21.38;32.42;102388.16;4996729;28;46151;-49
2022/08/06 07:50:14;;;;;;;;;0.00;0.00;;;;;21.62;33.33;102396.41;4998322;28;54746;-50
2022/08/06 07:52:40;;;;;;;;;0.00;0.00;;;;;21.85;32.53;102394.75;4998493;28;45454;-51
2022/08/06 07:55:10;;;;;;;;;0.67;0.00;;;;;22.09;31.30;102389.34;4996900;28;45535;-49
2022/08/06 07:57:35;;;;;;;;;0.00;0.00;;;;;22.34;32.37;102392.94;4995409;28;46983;-49
2022/08/06 08:00:01;;;;;;;;;0.33;0.33;;;;;22.67;30.79;102377.84;4996251;28;59921;-50
2022/08/06 08:02:28;;;;;;;;;0.00;0.00;;;;;23.09;30.17;102390.91;4997221;28;45505;-50
2022/08/06 08:07:37;;;;;;;;;2.00;0.00;;;;;23.83;29.32;102390.44;4998192;28;45392;-52
2022/08/06 08:10:03;;;;;;;;;0.00;0.00;;;;;24.20;28.54;102390.13;4997574;28;68931;-52
2022/08/06 08:12:29;;;;;;;;;0.00;0.00;;;;;24.61;28.36;102388.50;4992883;28;45380;-51
2022/08/06 08:14:55;;;;;;;;;0.00;0.00;;;;;25.05;27.58;102399.28;4996664;28;45374;-52
2022/08/06 08:17:21;;;;;;;;;0.00;0.00;;;;;25.53;26.43;102399.72;5008737;28;73834;-53
2022/08/06 08:19:46;;;;;;;;;0.00;0.00;;;;;26.00;25.29;102400.00;5008731;28;45339;-50
2022/08/06 08:22:14;;;;;;;;;1.00;0.00;;;;;26.46;25.53;102394.06;4998270;28;45275;-52
2022/08/06 08:24:40;;;;;;;;;1.00;1.00;;;;;26.90;24.93;102395.34;4999582;28;45349;-51
2022/08/06 08:27:08;;;;;;;;;0.00;0.00;;;;;27.38;24.33;102400.88;5005127;28;45394;-51
2022/08/06 08:29:34;;;;;;;;;0.00;0.00;;;;;27.78;23.17;102394.19;5004808;28;45505;-50
2022/08/06 08:32:00;;;;;;;;;3.00;0.00;;;;;27.97;22.93;102406.91;5004865;28;45472;-52
2022/08/06 08:34:25;;;;;;;;;0.00;0.00;;;;;28.19;22.77;102399.31;4999844;28;45384;-50
2022/08/06 08:36:50;;;;;;;;;0.00;0.00;;;;;28.42;22.22;102396.09;5003219;28;70720;-53
2022/08/06 08:39:17;;;;;;;;;0.00;0.00;;;;;28.66;22.60;102398.25;5008206;28;53871;-51
2022/08/06 08:41:55;;;;;;;;;0.67;0.00;;;;;28.87;22.52;102393.28;5008601;28;45665;-51
2022/08/06 08:44:24;;;;;;;;;0.00;0.00;;;;;29.16;21.53;102389.34;5007222;28;45513;-50
2022/08/06 08:46:50;;;;;;;;;0.67;0.00;;;;;29.41;21.45;102385.94;5003376;28;47211;-52
2022/08/06 08:49:40;;;;;;;;;0.67;0.00;;;;;29.91;21.91;102379.66;5007026;28;45230;-50
2022/08/06 08:52:08;;;;;;;;;0.00;0.00;;;;;30.28;20.71;102386.56;4997336;28;45407;-52
2022/08/06 08:54:36;;;;;;;;;0.33;0.33;;;;;30.30;20.64;102392.75;5010976;28;45327;-50
2022/08/06 08:57:05;;;;;;;;;1.33;0.33;;;;;30.54;19.87;102390.22;5009421;28;46123;-54
2022/08/06 08:59:31;;;;;;;;;0.67;0.67;;;;;30.59;19.14;102385.94;5007623;28;45522;-51
2022/08/06 09:01:56;;;;;;;;;1.00;1.00;;;;;30.78;20.67;102384.75;5006667;28;45291;-50
2022/08/06 09:04:22;;;;;;;;;0.00;0.00;;;;;31.13;19.30;102379.03;5004346;28;59464;-50
2022/08/06 09:06:47;;;;;;;;;0.00;0.00;;;;;31.28;18.64;102390.16;5000857;28;74451;-53
2022/08/06 09:09:13;;;;;;;;;0.00;0.00;;;;;31.45;19.58;102388.22;5011242;28;69241;-53
2022/08/06 09:11:39;;;;;;;;;2.00;1.00;;;;;31.57;18.31;102394.19;5008136;28;64688;-51
2022/08/06 09:14:07;;;;;;;;;0.00;0.00;;;;;31.47;18.96;102388.88;5005695;28;45313;-52
2022/08/06 09:16:34;;;;;;;;;1.00;1.00;;;;;31.58;19.01;102395.91;5005454;28;46383;-53
2022/08/06 09:19:00;;;;;;;;;0.00;0.00;;;;;31.48;20.02;102390.59;5012518;28;45423;-54
2022/08/06 09:21:27;;;;;;;;;0.00;0.00;;;;;31.69;18.35;102400.16;5009306;28;45276;-54
2022/08/06 09:23:52;;;;;;;;;1.00;1.00;;;;;31.73;17.70;102391.38;5005576;28;45372;-50
2022/08/06 09:26:17;;;;;;;;;0.00;0.00;;;;;31.96;19.80;102393.31;5008322;28;46003;-51
2022/08/06 09:28:44;;;;;;;;;2.25;0.00;;;;;32.28;18.75;102394.16;5004294;28;66634;-49
2022/08/06 09:31:12;;;;;;;;;0.00;0.00;;;;;32.40;17.62;102400.97;5010938;28;45335;-49
2022/08/06 09:33:40;;;;;;;;;0.67;0.67;;;;;32.47;16.81;102412.09;5002893;28;46339;-53
2022/08/06 09:36:07;;;;;;;;;0.75;0.75;;;;;32.55;17.92;102401.00;5008093;28;45489;-51
2022/08/06 09:38:58;;;;;;;;;0.00;0.00;;;;;32.98;16.97;102395.84;4998650;28;45526;-52
2022/08/06 09:41:26;;;;;;;;;0.00;0.00;;;;;33.12;18.07;102394.13;5004882;28;45524;-49
2022/08/06 09:43:53;;;;;;;;;0.00;0.00;;;;;33.37;17.96;102395.78;5003404;28;45601;-48
2022/08/06 09:46:36;;;;;;;;;2.25;0.00;;;;;33.74;16.82;102397.53;5010541;28;46240;-49
2022/08/06 09:49:03;;;;;;;;;0.75;0.75;;;;;33.95;17.69;102398.69;5010433;28;45289;-49
2022/08/06 09:51:29;;;;;;;;;0.00;0.00;;;;;34.07;17.00;102394.34;5011157;28;45501;-55
2022/08/06 09:53:56;;;;;;;;;0.25;0.00;;;;;34.34;16.99;102399.31;5006345;28;45261;-52
2022/08/06 09:56:21;;;;;;;;;2.00;1.67;;;;;34.54;16.75;102407.78;5006118;28;45452;-52
2022/08/06 09:58:47;;;;;;;;;2.00;2.00;;;;;34.45;16.54;102394.09;5007915;28;45832;-49
2022/08/06 10:01:15;;;;;;;;;1.00;0.67;;;;;34.25;16.88;102398.53;5008381;28;45356;-50
2022/08/06 10:03:40;;;;;;;;;0.33;0.33;;;;;34.47;16.49;102391.13;5009284;28;45463;-54
2022/08/06 10:06:11;;;;;;;;;2.33;1.67;;;;;34.63;15.60;102390.88;5011115;28;46733;-53
2022/08/06 10:08:38;;;;;;;;;0.00;0.00;;;;;34.70;15.68;102384.53;5009095;28;45364;-51
2022/08/06 10:11:04;;;;;;;;;2.50;0.75;;;;;34.69;16.07;102385.59;5014475;28;45585;-54
2022/08/06 10:13:30;;;;;;;;;0.00;0.00;;;;;34.53;16.45;102381.22;5000236;28;45531;-52
2022/08/06 10:15:58;;;;;;;;;0.00;0.00;;;;;34.69;15.88;102385.59;4999842;28;46413;-53
2022/08/06 10:18:41;;;;;;;;;0.00;0.00;;;;;34.68;15.99;102379.22;5005866;28;45459;-54
2022/08/06 10:21:12;;;;;;;;;0.75;0.00;;;;;34.62;15.72;102372.56;5001382;28;45438;-51
2022/08/06 10:23:40;;;;;;;;;0.00;0.00;;;;;34.82;15.77;102388.44;5001471;28;45269;-51
2022/08/06 10:26:10;;;;;;;;;0.00;0.00;;;;;34.82;16.60;102376.56;5009904;28;46684;-53
2022/08/06 10:28:36;;;;;;;;;0.50;0.50;;;;;35.00;15.15;102384.38;5008300;28;45255;-53
2022/08/06 10:31:03;;;;;;;;;0.00;0.00;;;;;35.21;15.73;102370.44;5006298;28;45515;-51
2022/08/06 10:33:33;;;;;;;;;0.75;0.00;;;;;35.59;15.21;102375.59;5003037;28;45610;-53
2022/08/06 10:36:08;;;;;;;;;1.75;1.75;;;;;35.89;15.51;102378.06;5009214;28;46339;-50
2022/08/06 10:38:35;;;;;;;;;1.50;0.75;;;;;36.20;14.75;102364.69;4999223;28;45308;-52
2022/08/06 10:41:07;;;;;;;;;2.50;2.50;;;;;36.56;14.30;102367.06;5007051;28;45285;-52
2022/08/06 10:43:35;;;;;;;;;1.25;0.25;;;;;36.84;14.13;102362.38;5002333;28;45291;-51
2022/08/06 10:46:15;;;;;;;;;2.50;0.75;;;;;37.12;12.96;102364.03;5005954;28;47402;-51
2022/08/06 10:48:43;;;;;;;;;0.00;0.00;;;;;37.15;13.74;102361.66;5001756;28;45529;-51
2022/08/06 10:51:09;;;;;;;;;1.00;1.00;;;;;37.10;12.53;102372.56;5009521;28;45652;-49
2022/08/06 10:53:37;;;;;;;;;0.25;0.25;;;;;37.05;12.76;102361.28;5002110;28;45543;-53
2022/08/06 10:56:08;;;;;;;;;0.00;0.00;;;;;37.22;13.56;102358.88;5010098;28;46049;-53
2022/08/06 10:58:34;;;;;;;;;2.25;1.00;;;;;37.65;14.33;102349.13;5009709;28;45312;-52
2022/08/06 11:01:03;;;;;;;;;0.25;0.25;;;;;38.15;13.44;102349.25;5005859;28;45218;-52
2022/08/06 11:03:55;;;;;;;;;1.00;1.00;;;;;37.69;12.76;102359.56;5006618;28;45309;-54
2022/08/06 11:06:29;;;;;;;;;0.00;0.00;;;;;37.23;11.36;102349.50;4993245;28;46428;-55
2022/08/06 11:09:13;;;;;;;;;0.50;0.50;;;;;37.06;12.63;102344.41;5010111;28;45352;-51
2022/08/06 11:12:12;;;;;;;;;0.75;0.75;;;;;37.16;12.63;102340.34;5007967;28;45239;-50
2022/08/06 11:14:38;;;;;;;;;1.75;1.75;;;;;37.10;13.01;102346.78;4994467;28;45655;-51
2022/08/06 11:17:04;;;;;;;;;0.00;0.00;;;;;36.94;12.27;102340.63;5007949;28;46301;-52
2022/08/06 11:19:41;;;;;;;;;0.00;0.00;;;;;36.92;12.56;102342.75;5012137;28;45474;-52
2022/08/06 11:22:07;;;;;;;;;6.00;3.00;;;;;37.15;12.86;102333.94;4999506;28;45426;-52
2022/08/06 11:24:32;;;;;;;;;2.33;2.33;;;;;37.36;12.26;102334.75;5002824;28;45402;-53
2022/08/06 11:26:58;;;;;;;;;0.67;0.67;;;;;37.58;12.46;102332.50;5008405;28;50716;-55
2022/08/06 11:29:23;;;;;;;;;0.00;0.00;;;;;37.39;11.05;102342.63;5010193;28;68439;-53
2022/08/06 11:31:50;;;;;;;;;1.00;1.00;;;;;37.41;11.46;102330.22;5005404;28;66658;-52
2022/08/06 11:34:18;;;;;;;;;1.00;1.00;;;;;37.21;11.55;102323.88;5003020;28;45842;-53
2022/08/06 11:36:47;;;;;;;;;0.00;0.00;;;;;37.40;11.18;102320.25;5008593;28;46044;-53
2022/08/06 11:39:13;;;;;;;;;0.00;0.00;;;;;37.39;11.98;102326.84;5009443;28;45297;-51
2022/08/06 11:41:47;;;;;;;;;1.25;0.00;;;;;37.50;12.53;102313.34;5006334;28;45356;-51
2022/08/06 11:44:15;;;;;;;;;0.75;0.75;;;;;37.76;11.24;102325.34;5001175;28;45481;-50
2022/08/06 11:46:41;;;;;;;;;0.00;0.00;;;;;38.11;12.30;102319.38;5004480;28;46998;-53
2022/08/06 11:49:13;;;;;;;;;0.00;0.00;;;;;38.25;12.40;102323.75;5006244;28;45470;-51
2022/08/06 11:51:58;;;;;;;;;0.25;0.25;;;;;38.60;12.80;102326.03;4997283;28;45452;-52
2022/08/06 11:54:28;;;;;;;;;0.00;0.00;;;;;38.42;11.48;102310.16;4999037;28;45751;-53
2022/08/06 11:57:09;;;;;;;;;0.00;0.00;;;;;38.22;11.54;102311.16;5010063;28;46172;-51
2022/08/06 11:59:38;;;;;;;;;0.75;0.25;;;;;38.32;11.38;102312.63;5004700;28;45277;-51
2022/08/06 12:02:09;;;;;;;;;0.00;0.00;;;;;38.03;11.98;102320.50;5005608;28;45501;-55
2022/08/06 12:04:34;;;;;;;;;1.00;1.00;;;;;37.98;11.27;102307.31;5005120;28;45296;-53
2022/08/06 12:07:28;;;;;;;;;0.00;0.00;;;;;37.96;12.01;102303.91;5005691;28;46180;-53
2022/08/06 12:10:06;;;;;;;;;1.00;1.00;;;;;37.79;11.97;102302.75;5004764;28;45278;-54
2022/08/06 12:12:40;;;;;;;;;1.00;1.00;;;;;37.56;11.61;102309.69;4999056;28;45529;-53
2022/08/06 12:15:11;;;;;;;;;0.75;0.75;;;;;37.60;12.72;102297.09;5008809;28;45479;-54
2022/08/06 12:17:37;;;;;;;;;1.00;1.00;;;;;37.65;12.50;102297.25;5007304;28;46185;-49
2022/08/06 12:20:02;;;;;;;;;1.25;1.25;;;;;37.82;12.80;102291.19;5002733;28;45479;-53
2022/08/06 12:22:29;;;;;;;;;1.50;1.00;;;;;38.06;11.84;102292.31;5013937;28;45377;-55
2022/08/06 12:24:57;;;;;;;;;2.50;0.00;;;;;37.69;11.90;102295.75;5009777;28;45437;-51
2022/08/06 12:27:22;;;;;;;;;0.00;0.00;;;;;37.74;12.70;102297.84;5014946;28;47008;-52
2022/08/06 12:29:55;;;;;;;;;1.00;1.00;;;;;37.09;11.12;102284.91;5000380;28;45545;-52
2022/08/06 12:32:28;;;;;;;;;2.00;1.50;;;;;36.84;12.13;102282.84;5008872;28;45584;-54
2022/08/06 12:34:55;;;;;;;;;0.00;0.00;;;;;36.59;12.27;102285.44;5010107;28;45367;-50
2022/08/06 12:37:31;;;;;;;;;0.75;0.75;;;;;36.71;12.20;102272.66;5007773;28;46392;-54
2022/08/06 12:42:41;;;;;;;;;0.00;0.00;;;;;36.74;12.71;102286.06;5009214;28;45462;-53
2022/08/06 12:45:08;;;;;;;;;0.00;0.00;;;;;36.67;12.49;102276.91;5013696;28;67027;-52
2022/08/06 12:47:34;;;;;;;;;2.00;1.00;;;;;36.63;11.68;102292.25;5001101;28;46260;-50
2022/08/06 12:49:59;;;;;;;;;2.25;0.50;;;;;36.63;13.10;102280.34;5013544;28;67649;-48
2022/08/06 12:52:24;;;;;;;;;0.00;0.00;;;;;36.55;11.47;102292.50;5008864;28;48746;-48
2022/08/06 12:54:50;;;;;;;;;0.67;0.67;;;;;36.20;12.66;102263.09;5014069;28;62584;-49
2022/08/06 12:57:27;;;;;;;;;0.00;0.00;;;;;35.92;12.96;102272.47;5007756;28;45460;-54
2022/08/06 12:59:54;;;;;;;;;0.50;0.50;;;;;35.76;13.10;102270.06;4994986;28;45350;-52
2022/08/06 13:02:24;;;;;;;;;0.00;0.00;;;;;35.75;13.05;102268.38;5010059;28;45426;-52
2022/08/06 13:04:51;;;;;;;;;0.50;0.50;;;;;35.58;13.68;102267.91;4998699;28;45698;-50
2022/08/06 13:07:17;;;;;;;;;1.00;1.00;;;;;35.41;13.79;102256.34;5010597;28;46235;-52
2022/08/06 13:09:45;;;;;;;;;0.25;0.00;;;;;35.19;13.74;102263.91;5011054;28;45424;-52
2022/08/06 13:12:15;;;;;;;;;0.75;0.75;;;;;34.71;13.66;102251.75;5009772;28;45419;-54
2022/08/06 13:14:52;;;;;;;;;0.75;0.75;;;;;34.40;14.42;102250.25;5007850;28;45440;-51
2022/08/06 13:17:18;;;;;;;;;0.00;0.00;;;;;34.13;14.67;102254.69;5000651;28;46490;-52
2022/08/06 13:19:55;;;;;;;;;0.00;0.00;;;;;33.74;14.54;102248.59;5007624;28;45405;-51
2022/08/06 13:22:21;;;;;;;;;0.50;0.50;;;;;33.37;15.14;102245.00;5012287;28;45453;-54
2022/08/06 13:24:47;;;;;;;;;3.75;0.75;;;;;32.83;14.36;102243.47;5003560;28;45922;-51
2022/08/06 13:27:12;;;;;;;;;1.00;1.00;;;;;32.30;15.18;102243.47;5005986;28;46314;-52
2022/08/06 13:29:58;;;;;;;;;0.00;0.00;;;;;31.89;15.62;102243.78;5009335;28;54710;-48
2022/08/06 13:32:25;;;;;;;;;0.75;0.50;;;;;31.66;15.62;102236.41;5001123;28;45427;-47
2022/08/06 13:34:55;;;;;;;;;2.00;0.25;;;;;31.42;16.01;102237.38;5007491;28;45360;-48
2022/08/06 13:37:48;;;;;;;;;1.75;0.75;;;;;31.14;16.34;102230.50;5004549;28;46361;-48
2022/08/06 13:40:15;;;;;;;;;0.75;0.75;;;;;30.77;16.26;102226.50;4998985;28;45524;-48
2022/08/06 13:42:55;;;;;;;;;0.00;0.00;;;;;30.15;16.51;102236.19;4999880;28;45467;-50
2022/08/06 13:45:26;;;;;;;;;0.00;0.00;;;;;29.60;17.12;102226.72;4996974;28;45618;-51
2022/08/06 13:48:07;;;;;;;;;0.67;0.67;;;;;29.20;17.63;102228.28;4996462;28;45367;-49
2022/08/06 13:50:43;;;;;;;;;0.67;0.67;;;;;28.85;18.32;102235.66;5001079;28;45475;-49
2022/08/06 13:53:09;;;;;;;;;1.00;1.00;;;;;28.66;18.59;102231.31;5012349;28;45352;-47
2022/08/06 13:55:35;;;;;;;;;1.25;0.00;;;;;28.53;19.10;102213.41;5005391;28;45227;-48
2022/08/06 13:58:01;;;;;;;;;1.00;1.00;;;;;28.61;18.86;102218.06;5014192;28;46176;-49
2022/08/06 14:00:26;;;;;;;;;0.00;0.00;;;;;28.68;18.84;102210.97;5002241;28;66944;-48
2022/08/06 14:02:52;;;;;;;;;0.33;0.33;;;;;28.68;18.49;102207.34;5013697;28;45890;-47
2022/08/06 14:05:18;;;;;;;;;0.00;0.00;;;;;28.57;18.98;102215.84;5006475;28;45605;-50
2022/08/06 14:07:43;;;;;;;;;1.00;0.00;;;;;28.43;18.75;102212.66;5013640;28;45985;-49
2022/08/06 14:10:09;;;;;;;;;1.00;1.00;;;;;28.28;19.28;102206.03;4999399;28;45614;-48
2022/08/06 14:12:35;;;;;;;;;2.00;1.67;;;;;28.22;19.52;102213.03;5007250;28;45435;-47
2022/08/06 14:15:00;;;;;;;;;1.67;1.67;;;;;28.08;19.71;102211.72;4999767;28;45422;-61
2022/08/06 14:17:26;;;;;;;;;2.00;2.00;;;;;27.97;19.99;102201.00;5011096;28;69318;-60
2022/08/06 14:19:51;;;;;;;;;1.33;1.33;;;;;27.89;19.67;102197.19;5005291;28;69295;-61
2022/08/06 14:22:17;;;;;;;;;2.00;2.00;;;;;27.83;19.73;102192.34;5006800;28;54838;-61
2022/08/06 14:24:42;;;;;;;;;3.00;2.00;;;;;27.70;19.32;102197.34;4999594;28;45545;-60
2022/08/06 14:27:09;;;;;;;;;3.00;3.00;;;;;27.47;19.81;102199.69;5010611;28;46296;-60
2022/08/06 14:29:35;;;;;;;;;2.00;2.00;;;;;27.33;19.65;102188.25;5008535;28;45669;-60
2022/08/06 14:32:01;;;;;;;;;2.33;2.33;;;;;27.25;19.89;102177.25;5006065;28;45467;-60
2022/08/06 14:34:27;;;;;;;;;2.00;2.00;;;;;27.14;20.16;102180.19;5006099;28;45357;-60
2022/08/06 14:36:52;;;;;;;;;2.00;2.00;;;;;27.03;20.71;102171.19;5011669;28;47054;-61
2022/08/06 14:39:17;;;;;;;;;3.67;2.00;;;;;26.89;21.45;102177.16;5001670;28;45457;-60
2022/08/06 14:47:12;;;;;;;;;1.67;1.67;;;;;26.77;20.68;102153.81;5011294;28;45741;-60
2022/08/06 14:49:39;;;;;;;;;2.67;2.67;;;;;26.70;21.19;102161.69;5006657;28;46382;-61
2022/08/06 14:52:05;;;;;;;;;1.00;1.00;;;;;26.67;21.58;102164.72;5007433;28;45431;-61
2022/08/06 14:54:30;;;;;;;;;3.67;3.00;;;;;26.62;21.17;102161.59;5011202;28;45408;-60
2022/08/06 14:56:56;;;;;;;;;2.00;2.00;;;;;26.54;21.81;102155.03;5010762;28;46357;-61
2022/08/06 14:59:22;;;;;;;;;1.00;0.67;;;;;26.52;20.91;102161.66;5000477;28;47420;-60
2022/08/06 15:01:47;;;;;;;;;2.33;1.67;;;;;26.45;21.02;102153.16;5006498;28;45537;-60
2022/08/06 15:04:13;;;;;;;;;1.67;1.67;;;;;26.34;21.25;102162.41;5011113;28;45280;-60
2022/08/06 15:06:38;;;;;;;;;0.33;0.33;;;;;26.36;21.54;102162.25;5008936;28;71932;-61
2022/08/06 15:09:04;;;;;;;;;2.67;0.67;;;;;26.37;21.74;102153.06;5010482;28;45361;-60
2022/08/06 15:11:29;;;;;;;;;1.00;1.00;;;;;26.39;21.47;102162.81;5006872;28;45462;-61
2022/08/06 15:13:54;;;;;;;;;1.67;1.67;;;;;26.40;21.34;102158.25;5000342;28;65018;-61
2022/08/06 15:16:20;;;;;;;;;3.00;1.00;;;;;26.40;21.08;102155.50;5007027;28;46052;-60
2022/08/06 15:18:46;;;;;;;;;2.00;1.00;;;;;26.37;20.94;102145.75;4998006;28;45416;-60
2022/08/06 15:21:11;;;;;;;;;1.00;1.00;;;;;26.36;21.54;102149.50;5005482;28;65331;-60
2022/08/06 15:23:36;;;;;;;;;1.00;1.00;;;;;26.30;21.23;102150.06;5008771;28;45380;-61
2022/08/06 15:26:02;;;;;;;;;1.00;0.00;;;;;26.18;21.58;102154.84;5010931;28;66982;-61
2022/08/06 15:28:27;;;;;;;;;1.67;1.00;;;;;26.11;21.14;102140.06;5005345;28;62900;-61
2022/08/06 15:30:53;;;;;;;;;0.00;0.00;;;;;26.06;21.81;102145.97;5006283;28;45330;-61
2022/08/06 15:33:18;;;;;;;;;0.00;0.00;;;;;26.03;21.94;102142.66;5001730;28;66467;-61
2022/08/06 15:35:43;;;;;;;;;1.33;1.33;;;;;26.01;21.28;102136.47;5004902;28;70241;-61
2022/08/06 15:38:09;;;;;;;;;1.33;0.67;;;;;26.00;21.43;102134.78;4998702;28;45356;-61
2022/08/06 15:40:35;;;;;;;;;0.33;0.00;;;;;26.01;21.94;102141.91;4998674;28;45368;-61
2022/08/06 15:43:00;;;;;;;;;0.00;0.00;;;;;25.90;21.43;102138.38;5004819;28;69914;-61
2022/08/06 15:45:25;;;;;;;;;0.00;0.00;;;;;25.88;21.27;102132.22;5005372;28;47079;-61
2022/08/06 15:47:51;;;;;;;;;0.00;0.00;;;;;25.87;21.27;102127.75;5007369;28;45373;-60
2022/08/06 15:50:16;;;;;;;;;1.00;1.00;;;;;25.91;21.26;102125.59;4999408;28;45532;-61
2022/08/06 15:52:42;;;;;;;;;1.25;0.75;;;;;25.94;21.84;102128.03;4997807;28;45341;-60
2022/08/06 15:55:07;;;;;;;;;2.00;2.00;;;;;25.98;21.91;102124.00;5004320;28;69174;-60
2022/08/06 15:57:33;;;;;;;;;1.00;1.00;;;;;25.93;21.32;102120.88;5002537;28;45632;-60
2022/08/06 15:59:58;;;;;;;;;1.33;1.00;;;;;25.82;22.13;102121.88;4997591;28;45268;-60
2022/08/06 16:02:25;;;;;;;;;1.00;1.00;;;;;25.76;21.66;102123.34;5000547;28;63082;-60
2022/08/06 16:04:51;;;;;;;;;1.00;1.00;;;;;25.70;22.15;102120.34;5002412;28;47144;-60
2022/08/06 16:07:16;;;;;;;;;1.67;0.33;;;;;25.65;21.63;102126.19;5001454;28;47049;-60
2022/08/06 16:09:42;;;;;;;;;1.00;1.00;;;;;25.63;21.79;102120.06;5003219;28;45443;-60
2022/08/06 16:12:08;;;;;;;;;1.00;1.00;;;;;25.68;21.67;102130.50;4999430;28;45426;-61
2022/08/06 16:14:33;;;;;;;;;1.00;1.00;;;;;25.67;21.89;102121.47;5004850;28;46054;-60
2022/08/06 16:16:58;;;;;;;;;0.00;0.00;;;;;25.69;22.33;102121.31;5004737;28;70682;-60
2022/08/06 16:19:24;;;;;;;;;2.00;2.00;;;;;25.70;22.57;102123.06;4996263;28;69195;-61
2022/08/06 16:21:50;;;;;;;;;1.00;1.00;;;;;25.74;22.17;102108.97;4997793;28;45338;-61
2022/08/06 16:24:16;;;;;;;;;5.00;2.00;;;;;25.70;22.41;102126.63;4996506;28;46191;-61
2022/08/06 16:26:41;;;;;;;;;1.33;1.33;;;;;25.60;21.53;102117.59;4996992;28;45344;-61
2022/08/06 16:29:07;;;;;;;;;1.00;1.00;;;;;25.58;21.81;102119.63;4997870;28;66900;-62
2022/08/06 16:31:33;;;;;;;;;2.00;2.00;;;;;25.50;22.97;102109.44;4997396;28;45244;-61
2022/08/06 16:33:58;;;;;;;;;2.00;2.00;;;;;25.54;22.84;102110.88;4997930;28;45920;-61
2022/08/06 16:36:23;;;;;;;;;2.00;2.00;;;;;25.51;22.33;102113.88;4998036;28;45293;-60
2022/08/06 16:38:49;;;;;;;;;3.00;1.00;;;;;25.45;22.70;102113.59;4996687;28;67518;-60
2022/08/06 16:41:14;;;;;;;;;5.00;2.67;;;;;25.40;22.80;102119.47;4995887;28;61786;-60
2022/08/06 16:43:39;;;;;;;;;2.00;2.00;;;;;25.41;22.67;102121.19;4996976;28;66811;-60
2022/08/06 16:46:05;;;;;;;;;1.33;1.33;;;;;25.37;22.72;102117.91;4996782;28;56585;-61
2022/08/06 16:48:30;;;;;;;;;2.33;2.33;;;;;25.36;23.37;102118.03;4997791;28;45201;-60
2022/08/06 16:50:55;;;;;;;;;2.67;2.67;;;;;25.29;23.18;102106.81;4996538;28;63933;-60
2022/08/06 16:53:21;;;;;;;;;3.33;3.33;;;;;25.25;23.12;102108.97;4997213;28;72969;-60
2022/08/06 16:55:46;;;;;;;;;3.67;2.33;;;;;25.17;23.86;102107.97;4999117;28;45395;-60
2022/08/06 16:58:12;;;;;;;;;2.00;2.00;;;;;25.16;23.73;102109.84;4999625;28;45571;-60
2022/08/06 17:00:37;;;;;;;;;2.67;2.67;;;;;25.15;23.64;102109.94;5000358;28;45531;-60
2022/08/06 17:03:05;;;;;;;;;1.67;1.67;;;;;25.13;23.51;102093.75;5000280;28;73345;-60
2022/08/06 17:05:31;;;;;;;;;4.00;2.33;;;;;25.12;23.80;102097.47;5000435;28;45440;-61
2022/08/06 17:07:57;;;;;;;;;3.33;1.67;;;;;25.06;23.61;102092.63;5001021;28;45308;-60
2022/08/06 17:10:23;;;;;;;;;3.67;1.00;;;;;25.00;24.17;102104.06;5000656;28;45439;-60
2022/08/06 17:12:48;;;;;;;;;2.00;2.00;;;;;24.93;24.37;102091.00;4998874;28;45989;-60
2022/08/06 17:15:16;;;;;;;;;3.00;1.67;;;;;24.92;24.11;102092.00;5007287;28;45374;-60
2022/08/06 17:17:42;;;;;;;;;1.33;1.33;;;;;24.91;24.36;102101.19;5000689;28;45300;-61
2022/08/06 17:20:08;;;;;;;;;3.33;1.00;;;;;24.91;24.32;102090.31;5006667;28;45571;-60
2022/08/06 17:22:35;;;;;;;;;1.67;1.67;;;;;24.88;24.36;102097.88;5013702;28;46201;-60
2022/08/06 17:25:00;;;;;;;;;1.00;1.00;;;;;24.85;24.16;102098.16;5000620;28;45491;-60
2022/08/06 17:27:26;;;;;;;;;1.33;1.33;;;;;24.82;24.36;102093.00;5014510;28;45297;-60
2022/08/06 17:29:51;;;;;;;;;2.00;1.00;;;;;24.82;24.50;102098.44;5005000;28;45380;-60
2022/08/06 17:32:18;;;;;;;;;2.00;2.00;;;;;24.83;24.41;102097.44;5013931;28;59558;-60
2022/08/06 17:34:43;;;;;;;;;1.00;1.00;;;;;24.81;24.67;102091.25;5000439;28;45475;-60
2022/08/06 17:37:09;;;;;;;;;1.67;1.67;;;;;24.79;24.86;102096.00;5014361;28;45411;-60
2022/08/06 17:39:34;;;;;;;;;3.00;3.00;;;;;24.81;24.39;102105.75;5008366;28;45543;-60
2022/08/06 17:41:59;;;;;;;;;3.00;2.00;;;;;24.77;24.81;102104.31;5014110;28;45885;-60